This is the latest recevied weather packets stored in our database for station/object JA3VQW-13. If no packets are shown the sender has not sent any weather packets the latest 10 day(s).
| Time | Temp. | Humidity | Pressure | Rain* | Wind** | Luminosity | Snow |
|---|---|---|---|---|---|---|---|
| 1777205588 | 16.67° C | 72% | 1004 hPa | 0 mm | - | - | - |
| 1777205491 | 16.11° C | 73% | 1004 hPa | 0 mm | - | - | - |
| 1777204590 | 16.11° C | 72% | 1004 hPa | 0 mm | - | - | - |
| 1777203788 | 16.11° C | 71% | 1004 hPa | 1.02 mm | - | - | - |
| 1777203691 | 16.11° C | 70% | 1004 hPa | 1.02 mm | - | - | - |
| 1777202792 | 16.67° C | 67% | 1004 hPa | 1.02 mm | - | - | - |
| 1777201989 | 16.67° C | 65% | 1004 hPa | 1.02 mm | - | - | - |
| 1777201893 | 16.67° C | 65% | 1004 hPa | 1.02 mm | - | - | - |
| 1777200992 | 16.67° C | 59% | 1004 hPa | 1.02 mm | - | - | - |
| 1777200188 | 17.78° C | 51% | 1004 hPa | 0 mm | - | - | - |
| 1777200091 | 17.78° C | 51% | 1004 hPa | 0 mm | - | - | - |
| 1777199192 | 18.89° C | 46% | 1004 hPa | 0 mm | - | - | - |
| 1777198388 | 18.89° C | 39% | 1004 hPa | 0 mm | - | - | - |
| 1777198291 | 18.89° C | 39% | 1004 hPa | 0 mm | - | - | - |
| 1777197391 | 19.44° C | 38% | 1005 hPa | 0 mm | - | - | - |
| 1777196589 | 19.44° C | 37% | 1004 hPa | 0 mm | - | - | - |
| 1777196492 | 19.44° C | 36% | 1004 hPa | 0 mm | - | - | - |
| 1777195591 | 19.44° C | 36% | 1004 hPa | 0 mm | - | - | - |
| 1777194788 | 19.44° C | 35% | 1003 hPa | 0 mm | - | - | - |
| 1777194691 | 19.44° C | 35% | 1003 hPa | 0 mm | - | - | - |
| 1777192987 | 20° C | 34% | 1004 hPa | 0 mm | - | - | - |
| 1777192890 | 20° C | 34% | 1004 hPa | 0 mm | - | - | - |
| 1777191991 | 20° C | 35% | 1004 hPa | 0 mm | - | - | - |
| 1777191189 | 20° C | 35% | 1004 hPa | 0 mm | - | - | - |
| 1777191092 | 20° C | 35% | 1004 hPa | 0 mm | - | - | - |
* Rain latest hour (hover to see other rain measurements)
** Current wind speed in m/s (hover to see current wind gust speed)